Aérodrome :
LOGIN :

S'inscrire | Disclaimer

   EN    FR    IT 

 










Légende :    VFR   VFR Marginal   IFR   IFR Intensif   IFR Très Intensif
Visi : 
Plafond : 
>= 8 km
>= 3000ft
5 à 8 km
1000 à 3000 ft
1500m à 5 km
500 à 1000 ft
800 à 1500m
200 à 500 ft
< 800m
< 200 ft
Symboles :   Orages  Brouillard  Fortes neiges  Fortes précipitations  Vent > 20 kt
SIGMETs :   Divers  Orages  Givrage  Turbulence  Onde Orograph.  Cendres Volcan.






- Altitude de l'aérodrome : 142 ft
- Code IATA : ALC


LEAL - Alicante

DERNIER METAR :
  • 250900Z 12005KT 050V190 9999 FEW020 25/15 Q1013 NOSIG

METARs EXPIRÉS :
  • 250830Z 09004KT 050V170 9999 FEW020 24/16 Q1013 NOSIG
  • 250800Z 08005KT 020V160 9999 FEW014 24/16 Q1013 NOSIG
  • 250730Z 05003KT 350V110 9999 FEW014 24/16 Q1013 NOSIG
  • 250700Z 03004KT 340V080 9999 FEW014 23/16 Q1013 NOSIG
  • 250630Z 03003KT 360V070 CAVOK 22/16 Q1013 NOSIG
  • 250600Z 03003KT CAVOK 22/16 Q1013 NOSIG
  • 250530Z 03003KT 010V070 CAVOK 21/16 Q1012 NOSIG
  • 250500Z 00000KT CAVOK 20/16 Q1012 NOSIG
  • 250430Z 00000KT CAVOK 21/16 Q1012 NOSIG

TAF TAF LEAL
Valide du 25 à 06h jusqu'au 26 à 06h UTC


250500Z 2506/2606 VRB04KT 9999 FEW020 TX28/2512Z TN19/2506Z
BECMG 2509/2511 12010KT
BECMG 2517/2519 05007KT
TEMPO 2601/2606 VRB04KT



MET'MAP, la Météo Aéronautique d'un coup d'oeil ! - Copyright ORBIFLY Décembre 2007 - Disclaimer

ORBIFLY MET'MAP TEAM :

Programmation & Développement : Alexandra Zaïnal
Sur une idée originale de : Baudouin d'Aumeries
Soutien technique & logistique : Manuel Goepfert
Assistance : Marc-Olivier Méhu




SOURCES & CREDITS :

   NOAA